createdAt,value
2022-11-09T00:01:04.805Z,11.30
2022-11-09T00:03:31.935Z,11.30
2022-11-09T00:06:00.520Z,11.30
2022-11-09T00:08:28.010Z,11.30
2022-11-09T00:10:54.914Z,11.30
2022-11-09T00:13:22.450Z,11.30
2022-11-09T00:15:49.571Z,11.30
2022-11-09T00:18:16.341Z,11.30
2022-11-09T00:20:47.179Z,11.30
2022-11-09T00:23:15.016Z,11.30
2022-11-09T00:25:41.877Z,11.30
2022-11-09T00:28:08.704Z,11.20
2022-11-09T00:30:35.466Z,11.30
2022-11-09T00:33:02.282Z,11.30
2022-11-09T00:35:29.052Z,11.30
2022-11-09T00:37:56.719Z,11.30
2022-11-09T00:40:23.591Z,11.30
2022-11-09T00:42:50.364Z,11.30
2022-11-09T00:45:17.648Z,11.20
2022-11-09T00:47:44.858Z,11.30
2022-11-09T00:50:11.694Z,11.30
2022-11-09T00:52:38.493Z,11.40
2022-11-09T00:55:05.843Z,11.30
2022-11-09T00:57:32.685Z,11.30
2022-11-09T00:59:59.529Z,11.30
2022-11-09T01:02:26.345Z,11.30
2022-11-09T01:04:53.104Z,11.30
2022-11-09T01:07:19.963Z,11.30
2022-11-09T01:09:46.806Z,11.40
2022-11-09T01:12:13.624Z,11.40
2022-11-09T01:14:40.433Z,11.30
2022-11-09T01:17:07.307Z,11.30
2022-11-09T01:19:34.099Z,11.30
2022-11-09T01:22:00.867Z,11.30
2022-11-09T01:24:27.615Z,11.40
2022-11-09T01:26:54.387Z,11.30
2022-11-09T01:29:21.290Z,11.40
2022-11-09T01:31:48.922Z,11.30
2022-11-09T01:34:17.416Z,11.30
2022-11-09T01:36:44.333Z,11.30
2022-11-09T01:39:11.276Z,11.30
2022-11-09T01:41:38.161Z,11.30
2022-11-09T01:44:21.266Z,11.30
2022-11-09T01:47:10.259Z,11.30
2022-11-09T01:49:55.992Z,11.30
2022-11-09T01:52:37.746Z,11.30
2022-11-09T01:55:17.029Z,11.30
2022-11-09T01:58:02.944Z,11.30
2022-11-09T02:00:33.570Z,11.30
2022-11-09T02:03:12.973Z,11.30
2022-11-09T02:05:42.791Z,11.40
2022-11-09T02:08:14.490Z,11.40
2022-11-09T02:11:11.349Z,11.40
2022-11-09T02:13:44.416Z,11.40
2022-11-09T02:16:13.794Z,11.40
2022-11-09T02:19:03.532Z,11.40
2022-11-09T02:21:32.210Z,11.40
2022-11-09T02:24:00.282Z,11.40
2022-11-09T02:26:47.680Z,11.30
2022-11-09T02:29:21.209Z,11.30
2022-11-09T02:31:56.184Z,11.30
2022-11-09T02:34:25.112Z,11.30
2022-11-09T02:36:52.477Z,11.30
2022-11-09T02:39:24.018Z,11.20
2022-11-09T02:42:04.453Z,11.20
2022-11-09T02:44:39.892Z,11.20
2022-11-09T02:47:06.718Z,11.10
2022-11-09T02:49:33.608Z,11.20
2022-11-09T02:52:00.391Z,11.10
2022-11-09T02:54:27.203Z,11.10
2022-11-09T02:56:54.118Z,11.10
2022-11-09T02:59:20.953Z,11.10
2022-11-09T03:01:47.697Z,11.10
2022-11-09T03:04:14.537Z,11.10
2022-11-09T03:06:41.458Z,11.10
2022-11-09T03:09:11.010Z,11.00
2022-11-09T03:11:40.341Z,11.00
2022-11-09T03:14:07.798Z,11.00
2022-11-09T03:16:35.605Z,11.00
2022-11-09T03:19:02.704Z,11.00
2022-11-09T03:21:29.779Z,11.00
2022-11-09T03:23:56.804Z,11.00
2022-11-09T03:26:24.134Z,11.10
2022-11-09T03:28:50.984Z,11.10
2022-11-09T03:31:18.048Z,11.10
2022-11-09T03:33:44.832Z,11.10
2022-11-09T03:36:11.608Z,11.10
2022-11-09T03:38:38.364Z,11.10
2022-11-09T03:41:05.443Z,11.10
2022-11-09T03:43:32.278Z,11.10
2022-11-09T03:45:59.222Z,11.10
2022-11-09T03:48:26.188Z,11.10
2022-11-09T03:50:53.025Z,11.10
2022-11-09T03:53:20.143Z,11.10
2022-11-09T03:55:47.308Z,11.10
2022-11-09T03:58:14.144Z,11.10
2022-11-09T04:00:41.026Z,11.10
2022-11-09T04:03:07.949Z,11.10
2022-11-09T04:05:34.841Z,11.10
2022-11-09T04:08:01.708Z,11.00
2022-11-09T04:10:28.585Z,11.00
2022-11-09T04:12:55.610Z,11.00
2022-11-09T04:15:22.648Z,10.90
2022-11-09T04:18:00.799Z,10.90
2022-11-09T04:20:30.182Z,10.80
2022-11-09T04:23:04.141Z,10.80
2022-11-09T04:25:37.262Z,10.80
2022-11-09T04:28:06.422Z,10.80
2022-11-09T04:30:35.748Z,10.80
2022-11-09T04:33:03.994Z,10.80
2022-11-09T04:35:33.166Z,10.80
2022-11-09T04:38:07.245Z,10.80
2022-11-09T04:40:36.330Z,10.80
2022-11-09T04:43:06.088Z,10.90
2022-11-09T04:45:34.958Z,10.90
2022-11-09T04:48:05.455Z,10.90
2022-11-09T04:50:33.307Z,10.90
2022-11-09T04:53:12.934Z,11.00
2022-11-09T04:55:40.973Z,11.00
2022-11-09T04:58:08.073Z,11.00
2022-11-09T05:00:35.746Z,11.10
2022-11-09T05:03:04.710Z,11.10
2022-11-09T05:05:34.486Z,11.10
2022-11-09T05:08:02.005Z,11.10
2022-11-09T05:10:28.857Z,11.20
2022-11-09T05:13:08.454Z,11.20
2022-11-09T05:15:36.525Z,11.20
2022-11-09T05:18:05.276Z,11.20
2022-11-09T05:20:33.176Z,11.20
2022-11-09T05:23:19.867Z,11.20
2022-11-09T05:25:47.602Z,11.20
2022-11-09T05:28:15.186Z,11.20
2022-11-09T05:30:42.069Z,11.20
2022-11-09T05:33:08.873Z,11.10
2022-11-09T05:35:35.768Z,11.10
2022-11-09T05:38:03.008Z,11.10
2022-11-09T05:40:29.899Z,11.10
2022-11-09T05:42:56.800Z,11.10
2022-11-09T05:45:42.112Z,11.10
2022-11-09T05:48:11.739Z,11.10
2022-11-09T05:50:39.527Z,11.20
2022-11-09T05:53:06.362Z,11.20
2022-11-09T05:55:33.847Z,11.20
2022-11-09T05:58:01.135Z,11.20
2022-11-09T06:00:28.179Z,11.20
2022-11-09T06:03:01.229Z,11.20
2022-11-09T06:05:28.022Z,11.20
2022-11-09T06:07:54.789Z,11.20
2022-11-09T06:10:21.570Z,11.20
2022-11-09T06:12:51.405Z,11.30
2022-11-09T06:15:18.233Z,11.30
2022-11-09T06:17:45.046Z,11.30
2022-11-09T06:20:11.956Z,11.30
2022-11-09T06:22:38.715Z,11.30
2022-11-09T06:25:05.848Z,11.30
2022-11-09T06:27:32.631Z,11.30
2022-11-09T06:29:59.413Z,11.30
2022-11-09T06:32:26.193Z,11.30
2022-11-09T06:34:52.992Z,11.30
2022-11-09T06:37:19.866Z,11.40
2022-11-09T06:39:47.434Z,11.40
2022-11-09T06:42:14.216Z,11.40
2022-11-09T06:44:41.018Z,11.40
2022-11-09T06:47:07.796Z,11.40
2022-11-09T06:49:34.606Z,11.40
2022-11-09T06:52:01.398Z,11.50
2022-11-09T06:54:28.459Z,11.50
2022-11-09T06:56:55.846Z,11.40
2022-11-09T06:59:22.754Z,11.40
2022-11-09T07:01:49.603Z,11.40
2022-11-09T07:04:16.495Z,11.40
2022-11-09T07:06:43.784Z,11.40
2022-11-09T07:09:11.896Z,11.50
2022-11-09T07:11:38.782Z,11.50
2022-11-09T07:14:05.738Z,11.60
2022-11-09T07:16:33.159Z,11.50
2022-11-09T07:19:00.532Z,11.50
2022-11-09T07:21:27.383Z,11.50
2022-11-09T07:23:56.506Z,11.50
2022-11-09T07:26:23.304Z,11.50
2022-11-09T07:28:50.078Z,11.50
2022-11-09T07:31:16.897Z,11.60
2022-11-09T07:33:43.746Z,11.50
2022-11-09T07:36:10.570Z,11.60
2022-11-09T07:38:37.402Z,11.50
2022-11-09T07:41:04.865Z,11.60
2022-11-09T07:43:31.713Z,11.60
2022-11-09T07:45:58.865Z,11.60
2022-11-09T07:48:25.639Z,11.60
2022-11-09T07:50:52.446Z,11.70
2022-11-09T07:53:19.570Z,11.70
2022-11-09T07:55:46.573Z,11.80
2022-11-09T07:58:15.654Z,11.80
2022-11-09T08:00:43.992Z,11.80
2022-11-09T08:03:10.925Z,11.90
2022-11-09T08:05:39.071Z,11.90
2022-11-09T08:08:10.349Z,12.00
2022-11-09T08:10:37.976Z,11.90
2022-11-09T08:13:11.676Z,12.00
2022-11-09T08:15:39.807Z,12.10
2022-11-09T08:18:21.038Z,12.20
2022-11-09T08:20:49.414Z,12.40
2022-11-09T08:23:19.210Z,12.30
2022-11-09T08:25:46.045Z,12.30
2022-11-09T08:28:15.254Z,12.30
2022-11-09T08:30:44.011Z,12.30
2022-11-09T08:33:12.015Z,12.30
2022-11-09T08:35:39.003Z,12.30
2022-11-09T08:38:06.149Z,12.20
2022-11-09T08:40:34.438Z,12.20
2022-11-09T08:43:05.172Z,12.20
2022-11-09T08:45:34.756Z,12.30
2022-11-09T08:48:03.413Z,12.30
2022-11-09T08:50:32.293Z,12.40
2022-11-09T08:53:01.310Z,12.50
2022-11-09T08:55:28.579Z,12.50
2022-11-09T08:58:00.823Z,12.60
2022-11-09T09:00:28.450Z,12.60
2022-11-09T09:02:55.306Z,12.60
2022-11-09T09:05:23.022Z,12.60
2022-11-09T09:07:49.883Z,12.70
2022-11-09T09:10:16.830Z,12.70
2022-11-09T09:12:43.649Z,12.70
2022-11-09T09:15:10.643Z,12.80
2022-11-09T09:17:37.433Z,12.90
2022-11-09T09:20:05.634Z,13.10
2022-11-09T09:22:33.391Z,13.30
2022-11-09T09:25:04.474Z,13.40
2022-11-09T09:27:31.321Z,13.30
2022-11-09T09:29:59.019Z,13.30
2022-11-09T09:32:26.651Z,13.20
2022-11-09T09:34:53.548Z,13.20
2022-11-09T09:37:20.374Z,13.30
2022-11-09T09:39:47.501Z,13.40
2022-11-09T09:42:32.211Z,13.50
2022-11-09T09:45:22.474Z,13.50
2022-11-09T09:48:21.368Z,13.50
2022-11-09T09:50:58.983Z,13.50
2022-11-09T09:53:44.935Z,13.60
2022-11-09T09:56:21.424Z,13.70
2022-11-09T09:59:10.433Z,13.70
2022-11-09T10:01:43.141Z,13.80
2022-11-09T10:04:22.885Z,13.80
2022-11-09T10:07:17.835Z,13.90
2022-11-09T10:10:11.850Z,14.00
2022-11-09T10:13:16.326Z,14.00
2022-11-09T11:06:15.731Z,14.20
2022-11-09T11:08:51.658Z,14.10
2022-11-09T11:12:16.232Z,14.00
2022-11-09T11:14:45.179Z,14.00
2022-11-09T11:17:27.835Z,14.00
2022-11-09T11:19:54.913Z,14.00
2022-11-09T11:22:27.214Z,13.90
2022-11-09T11:25:08.379Z,13.90
2022-11-09T11:27:47.780Z,13.90
2022-11-09T11:30:29.205Z,14.00
2022-11-09T11:32:57.429Z,14.00
2022-11-09T11:35:39.997Z,14.10
2022-11-09T11:38:37.197Z,14.00
2022-11-09T11:41:47.679Z,14.00
2022-11-09T11:45:02.980Z,14.00
2022-11-09T11:48:01.016Z,14.00
2022-11-09T11:50:52.008Z,14.00
2022-11-09T11:54:02.091Z,13.80
2022-11-09T11:57:13.450Z,13.80
2022-11-09T12:00:03.454Z,13.80
2022-11-09T12:03:15.827Z,13.90
2022-11-09T12:05:57.196Z,13.90
2022-11-09T12:08:49.908Z,13.90
2022-11-09T12:11:25.957Z,14.00
2022-11-09T12:14:29.652Z,14.10
2022-11-09T12:17:11.912Z,14.20
2022-11-09T12:19:45.955Z,14.50
2022-11-09T12:22:29.054Z,14.40
2022-11-09T12:25:11.469Z,14.50
2022-11-09T12:27:46.811Z,14.60
2022-11-09T12:30:28.600Z,14.60
2022-11-09T12:33:04.699Z,14.70
2022-11-09T12:36:09.411Z,14.70
2022-11-09T12:38:45.450Z,14.70
2022-11-09T12:41:22.226Z,14.70
2022-11-09T12:44:17.156Z,14.90
2022-11-09T12:46:52.331Z,14.80
2022-11-09T12:49:39.938Z,14.70
2022-11-09T12:52:12.490Z,14.50
2022-11-09T12:54:46.569Z,14.40
2022-11-09T12:57:30.820Z,14.40
2022-11-09T13:00:00.358Z,14.30
2022-11-09T13:02:50.795Z,14.40
2022-11-09T13:05:38.751Z,14.20
2022-11-09T13:08:15.118Z,14.30
2022-11-09T13:10:42.227Z,14.20
2022-11-09T13:13:11.772Z,14.20
2022-11-09T13:15:59.934Z,14.20
2022-11-09T13:18:51.302Z,14.20
2022-11-09T13:21:23.913Z,14.20
2022-11-09T13:24:02.854Z,14.20
2022-11-09T13:26:33.369Z,14.20
2022-11-09T13:29:15.326Z,14.30
2022-11-09T13:32:11.575Z,14.20
2022-11-09T13:34:51.896Z,14.10
2022-11-09T13:37:46.016Z,14.10
2022-11-09T13:40:31.030Z,14.10
2022-11-09T13:43:04.821Z,14.10
2022-11-09T13:45:37.960Z,14.00
2022-11-09T13:48:06.734Z,14.00
2022-11-09T13:50:35.299Z,14.00
2022-11-09T13:53:03.996Z,13.90
2022-11-09T13:55:38.308Z,13.90
2022-11-09T13:58:38.644Z,13.90
2022-11-09T14:01:05.620Z,13.80
2022-11-09T14:03:32.463Z,13.80
2022-11-09T14:06:02.687Z,13.70
2022-11-09T14:08:40.296Z,13.70
2022-11-09T14:12:05.179Z,13.60
2022-11-09T14:15:01.319Z,13.50
2022-11-09T14:17:56.073Z,13.50
2022-11-09T14:20:31.856Z,13.50
2022-11-09T14:22:58.708Z,13.40
2022-11-09T14:25:25.952Z,13.40
2022-11-09T14:27:58.784Z,13.40
2022-11-09T14:30:30.637Z,13.40
2022-11-09T14:32:59.153Z,13.30
2022-11-09T14:35:35.081Z,13.30
2022-11-09T14:38:19.460Z,13.20
2022-11-09T14:40:48.876Z,13.20
2022-11-09T14:43:43.890Z,13.10
2022-11-09T14:46:27.300Z,13.00
2022-11-09T14:49:01.607Z,13.00
2022-11-09T14:51:40.310Z,12.90
2022-11-09T14:54:14.303Z,12.90
2022-11-09T14:56:43.141Z,12.80
2022-11-09T14:59:16.854Z,12.70
2022-11-09T15:02:03.033Z,12.60
2022-11-09T15:04:30.275Z,12.60
2022-11-09T15:07:02.992Z,12.60
2022-11-09T15:09:45.453Z,12.70
2022-11-09T15:12:18.595Z,12.60
2022-11-09T15:14:53.177Z,12.50
2022-11-09T15:17:46.592Z,12.50
2022-11-09T15:20:13.553Z,12.50
2022-11-09T15:22:41.923Z,12.60
2022-11-09T15:25:43.442Z,12.50
2022-11-09T15:28:13.289Z,12.60
2022-11-09T15:30:55.424Z,12.60
2022-11-09T15:33:38.452Z,12.50
2022-11-09T15:36:36.723Z,12.40
2022-11-09T15:39:14.623Z,12.40
2022-11-09T15:41:41.459Z,12.30
2022-11-09T15:44:10.324Z,12.20
2022-11-09T15:46:52.434Z,12.10
2022-11-09T15:49:28.376Z,12.00
2022-11-09T15:51:56.357Z,11.90
2022-11-09T15:54:24.523Z,11.90
2022-11-09T15:56:51.925Z,11.80
2022-11-09T15:59:26.019Z,11.80
2022-11-09T16:01:53.195Z,11.80
2022-11-09T16:04:20.051Z,11.70
2022-11-09T16:06:47.230Z,11.70
2022-11-09T16:09:15.484Z,11.70
2022-11-09T16:11:42.366Z,11.80
2022-11-09T16:14:09.538Z,11.70
2022-11-09T16:16:36.500Z,11.70
2022-11-09T16:19:03.366Z,11.70
2022-11-09T16:21:30.185Z,11.90
2022-11-09T16:23:58.723Z,11.70
2022-11-09T16:26:26.088Z,11.80
2022-11-09T16:28:54.986Z,11.80
2022-11-09T16:31:40.953Z,11.80
2022-11-09T16:34:08.653Z,11.70
2022-11-09T16:36:37.303Z,11.60
2022-11-09T16:39:09.326Z,11.50
2022-11-09T16:41:41.100Z,11.50
2022-11-09T16:44:08.171Z,11.50
2022-11-09T16:46:35.551Z,11.30
2022-11-09T16:49:03.384Z,11.20
2022-11-09T16:51:30.978Z,11.10
2022-11-09T16:53:57.829Z,11.10
2022-11-09T16:56:24.926Z,11.20
2022-11-09T16:58:52.247Z,11.00
2022-11-09T17:01:23.213Z,10.90
2022-11-09T17:03:50.572Z,10.90
2022-11-09T17:06:17.637Z,10.90
2022-11-09T17:08:44.718Z,10.90
2022-11-09T17:11:14.999Z,10.90
2022-11-09T17:13:41.918Z,10.80
2022-11-09T17:16:12.709Z,10.80
2022-11-09T17:18:39.870Z,10.90
2022-11-09T17:21:14.196Z,11.00
2022-11-09T17:23:42.656Z,10.90
2022-11-09T17:26:10.376Z,10.90
2022-11-09T17:28:42.918Z,10.80
2022-11-09T17:31:28.035Z,10.80
2022-11-09T17:34:00.967Z,10.70
2022-11-09T17:36:49.217Z,10.80
2022-11-09T17:39:14.981Z,10.70
2022-11-09T17:41:43.004Z,10.70
2022-11-09T17:44:10.059Z,10.70
2022-11-09T17:46:36.968Z,10.70
2022-11-09T17:49:09.571Z,10.70
2022-11-09T17:51:37.073Z,10.70
2022-11-09T17:54:04.628Z,10.70
2022-11-09T17:56:33.323Z,10.80
2022-11-09T17:59:00.515Z,10.70
2022-11-09T18:01:27.313Z,10.70
2022-11-09T18:03:54.120Z,10.70
2022-11-09T18:06:23.334Z,10.60
2022-11-09T18:09:10.785Z,10.60
2022-11-09T18:11:37.729Z,10.50
2022-11-09T18:14:04.896Z,10.40
2022-11-09T18:16:31.750Z,10.40
2022-11-09T18:19:03.082Z,10.30
2022-11-09T18:21:30.560Z,10.20
2022-11-09T18:23:57.517Z,10.20
2022-11-09T18:26:24.400Z,10.10
2022-11-09T18:28:51.346Z,10.10
2022-11-09T18:31:18.149Z,10.10
2022-11-09T18:33:45.254Z,10.00
2022-11-09T18:36:15.788Z,10.00
2022-11-09T18:38:44.256Z,9.90
2022-11-09T18:41:15.746Z,9.90
2022-11-09T18:43:42.587Z,9.90
2022-11-09T18:46:12.961Z,9.90
2022-11-09T18:48:40.383Z,9.90
2022-11-09T18:51:09.754Z,9.90
2022-11-09T18:53:43.113Z,9.90
2022-11-09T18:56:18.796Z,10.00
2022-11-09T18:58:46.429Z,10.00
2022-11-09T19:01:14.120Z,10.00
2022-11-09T19:03:41.062Z,10.10
2022-11-09T19:06:13.200Z,10.10
2022-11-09T19:08:58.725Z,10.20
2022-11-09T19:11:25.956Z,10.20
2022-11-09T19:13:54.145Z,10.30
2022-11-09T19:16:21.441Z,10.30
2022-11-09T19:18:48.521Z,10.40
2022-11-09T19:21:42.108Z,10.40
2022-11-09T19:24:13.462Z,10.40
2022-11-09T19:26:40.478Z,10.40
2022-11-09T19:29:09.880Z,10.50
2022-11-09T19:31:38.349Z,10.30
2022-11-09T19:34:05.137Z,10.30
2022-11-09T19:36:33.513Z,10.30
2022-11-09T19:39:02.167Z,10.30
2022-11-09T19:41:29.349Z,10.30
2022-11-09T19:44:00.821Z,10.40
2022-11-09T19:46:31.020Z,10.40
2022-11-09T19:48:58.184Z,10.50
2022-11-09T19:51:25.919Z,10.50
2022-11-09T19:53:56.246Z,10.40
2022-11-09T19:56:26.559Z,10.30
2022-11-09T19:58:57.922Z,10.20
2022-11-09T20:01:25.385Z,10.10
2022-11-09T20:03:55.844Z,10.00
2022-11-09T20:06:24.652Z,9.90
2022-11-09T20:08:53.803Z,9.90
2022-11-09T20:11:42.910Z,9.80
2022-11-09T20:14:12.367Z,9.80
2022-11-09T20:16:40.979Z,10.00
2022-11-09T20:19:11.706Z,10.00
2022-11-09T20:21:40.140Z,10.00
2022-11-09T20:24:08.548Z,10.10
2022-11-09T20:26:35.297Z,10.10
2022-11-09T20:29:02.084Z,10.10
2022-11-09T20:31:28.853Z,10.10
2022-11-09T20:33:56.735Z,10.20
2022-11-09T20:36:23.542Z,10.20
2022-11-09T20:38:50.318Z,10.20
2022-11-09T20:41:20.557Z,10.30
2022-11-09T20:43:49.776Z,10.30
2022-11-09T20:46:20.486Z,10.30
2022-11-09T20:48:53.892Z,10.30
2022-11-09T20:51:24.152Z,10.20
2022-11-09T20:53:51.418Z,10.20
2022-11-09T20:56:20.124Z,10.30
2022-11-09T20:58:47.261Z,10.30
2022-11-09T21:01:21.219Z,10.30
2022-11-09T21:03:50.734Z,10.30
2022-11-09T21:06:17.831Z,10.30
2022-11-09T21:08:51.603Z,10.30
2022-11-09T21:11:20.187Z,10.30
2022-11-09T21:13:54.697Z,10.30
2022-11-09T21:16:23.671Z,10.30
2022-11-09T21:18:50.362Z,10.30
2022-11-09T21:21:22.168Z,10.20
2022-11-09T21:24:08.347Z,10.20
2022-11-09T21:26:53.913Z,10.20
2022-11-09T21:29:42.257Z,10.20
2022-11-09T21:32:11.476Z,10.30
2022-11-09T21:34:38.736Z,10.30
2022-11-09T21:37:05.865Z,10.30
2022-11-09T21:39:33.515Z,10.30
2022-11-09T21:42:01.668Z,10.30
2022-11-09T21:44:31.240Z,10.40
2022-11-09T21:46:59.155Z,10.40
2022-11-09T21:49:25.927Z,10.40
2022-11-09T21:51:53.666Z,10.40
2022-11-09T21:54:21.599Z,10.40
2022-11-09T21:56:50.379Z,10.40
2022-11-09T21:59:17.291Z,10.40
2022-11-09T22:01:45.134Z,10.30
2022-11-09T22:04:12.815Z,10.30
2022-11-09T22:06:43.137Z,10.30
2022-11-09T22:09:18.314Z,10.30
2022-11-09T22:12:04.556Z,10.30
2022-11-09T22:14:49.920Z,10.30
2022-11-09T22:17:16.695Z,10.30
2022-11-09T22:20:02.507Z,10.30
2022-11-09T22:22:31.061Z,10.30
2022-11-09T22:24:58.280Z,10.20
2022-11-09T22:27:25.180Z,10.20
2022-11-09T22:29:51.999Z,10.20
2022-11-09T22:32:18.820Z,10.10
2022-11-09T22:34:45.673Z,10.00
2022-11-09T22:37:12.476Z,9.90
2022-11-09T22:39:44.387Z,9.90
2022-11-09T22:42:13.828Z,10.00
2022-11-09T22:44:40.574Z,9.90
2022-11-09T22:47:07.408Z,9.90
2022-11-09T22:49:36.494Z,9.90
2022-11-09T22:52:05.099Z,9.80
2022-11-09T22:54:31.920Z,9.80
2022-11-09T22:56:58.727Z,9.80
2022-11-09T22:59:25.492Z,9.70
2022-11-09T23:01:52.337Z,9.70
2022-11-09T23:04:19.192Z,9.60
2022-11-09T23:06:45.993Z,9.60
2022-11-09T23:09:12.834Z,9.60
2022-11-09T23:11:39.568Z,9.60
2022-11-09T23:14:06.452Z,9.60
2022-11-09T23:16:33.274Z,9.50
2022-11-09T23:19:00.064Z,9.50
2022-11-09T23:21:36.463Z,9.50
2022-11-09T23:24:27.553Z,9.50
2022-11-09T23:26:54.296Z,9.50
2022-11-09T23:29:21.047Z,9.40
2022-11-09T23:31:47.750Z,9.40
2022-11-09T23:34:14.524Z,9.30
2022-11-09T23:36:41.271Z,9.30
2022-11-09T23:39:08.003Z,9.30
2022-11-09T23:41:34.843Z,9.20
2022-11-09T23:44:01.571Z,9.10
2022-11-09T23:46:28.301Z,9.10
2022-11-09T23:48:55.054Z,9.10
2022-11-09T23:51:23.221Z,9.10
2022-11-09T23:53:49.967Z,9.10
2022-11-09T23:56:16.732Z,9.10
2022-11-09T23:58:45.893Z,9.10
